sensor_id;sensor_type;location;lat;lon;timestamp;P1;durP1;ratioP1;P2;durP2;ratioP2
67063;SDS011;58476;48.072;11.970;2023-04-15T00:01:39;0.38;;;0.38;;
67063;SDS011;58476;48.072;11.970;2023-04-15T00:04:04;1.33;;;0.55;;
67063;SDS011;58476;48.072;11.970;2023-04-15T00:06:30;1.65;;;0.63;;
67063;SDS011;58476;48.072;11.970;2023-04-15T00:08:55;0.57;;;0.50;;
67063;SDS011;58476;48.072;11.970;2023-04-15T00:11:20;0.63;;;0.40;;
67063;SDS011;58476;48.072;11.970;2023-04-15T00:13:45;1.40;;;0.68;;
67063;SDS011;58476;48.072;11.970;2023-04-15T00:16:11;0.50;;;0.50;;
67063;SDS011;58476;48.072;11.970;2023-04-15T00:18:36;0.40;;;0.40;;
67063;SDS011;58476;48.072;11.970;2023-04-15T00:21:02;0.63;;;0.40;;
67063;SDS011;58476;48.072;11.970;2023-04-15T00:23:29;1.30;;;0.50;;
67063;SDS011;58476;48.072;11.970;2023-04-15T00:25:54;0.85;;;0.50;;
67063;SDS011;58476;48.072;11.970;2023-04-15T00:28:20;0.50;;;0.50;;
67063;SDS011;58476;48.072;11.970;2023-04-15T00:30:45;1.65;;;0.50;;
67063;SDS011;58476;48.072;11.970;2023-04-15T00:33:11;0.75;;;0.60;;
67063;SDS011;58476;48.072;11.970;2023-04-15T00:35:37;0.95;;;0.70;;
67063;SDS011;58476;48.072;11.970;2023-04-15T00:38:03;0.93;;;0.55;;
67063;SDS011;58476;48.072;11.970;2023-04-15T00:40:29;0.63;;;0.50;;
67063;SDS011;58476;48.072;11.970;2023-04-15T00:42:55;0.50;;;0.50;;
67063;SDS011;58476;48.072;11.970;2023-04-15T00:45:20;0.43;;;0.43;;
67063;SDS011;58476;48.072;11.970;2023-04-15T00:47:46;0.60;;;0.60;;
67063;SDS011;58476;48.072;11.970;2023-04-15T00:50:11;0.57;;;0.50;;
67063;SDS011;58476;48.072;11.970;2023-04-15T00:52:37;0.60;;;0.60;;
67063;SDS011;58476;48.072;11.970;2023-04-15T00:55:03;0.30;;;0.30;;
67063;SDS011;58476;48.072;11.970;2023-04-15T00:57:30;0.95;;;0.50;;
67063;SDS011;58476;48.072;11.970;2023-04-15T00:59:56;0.68;;;0.52;;
67063;SDS011;58476;48.072;11.970;2023-04-15T01:02:22;0.57;;;0.57;;
67063;SDS011;58476;48.072;11.970;2023-04-15T01:04:47;0.85;;;0.60;;
67063;SDS011;58476;48.072;11.970;2023-04-15T01:07:13;0.70;;;0.47;;
67063;SDS011;58476;48.072;11.970;2023-04-15T01:09:39;0.50;;;0.50;;
67063;SDS011;58476;48.072;11.970;2023-04-15T01:12:04;1.10;;;0.73;;
67063;SDS011;58476;48.072;11.970;2023-04-15T01:14:31;0.85;;;0.63;;
67063;SDS011;58476;48.072;11.970;2023-04-15T01:16:57;0.70;;;0.70;;
67063;SDS011;58476;48.072;11.970;2023-04-15T01:19:22;0.50;;;0.50;;
67063;SDS011;58476;48.072;11.970;2023-04-15T01:21:48;0.50;;;0.50;;
67063;SDS011;58476;48.072;11.970;2023-04-15T01:24:14;0.77;;;0.50;;
67063;SDS011;58476;48.072;11.970;2023-04-15T01:26:42;1.10;;;0.60;;
67063;SDS011;58476;48.072;11.970;2023-04-15T01:29:08;0.70;;;0.60;;
67063;SDS011;58476;48.072;11.970;2023-04-15T01:31:33;0.82;;;0.65;;
67063;SDS011;58476;48.072;11.970;2023-04-15T01:33:58;0.85;;;0.70;;
67063;SDS011;58476;48.072;11.970;2023-04-15T01:36:24;1.00;;;0.50;;
67063;SDS011;58476;48.072;11.970;2023-04-15T01:38:52;0.65;;;0.65;;
67063;SDS011;58476;48.072;11.970;2023-04-15T01:41:21;1.33;;;0.63;;
67063;SDS011;58476;48.072;11.970;2023-04-15T01:43:50;2.25;;;0.80;;
67063;SDS011;58476;48.072;11.970;2023-04-15T01:46:15;0.63;;;0.60;;
67063;SDS011;58476;48.072;11.970;2023-04-15T01:48:40;2.25;;;1.10;;
67063;SDS011;58476;48.072;11.970;2023-04-15T01:51:06;0.47;;;0.47;;
67063;SDS011;58476;48.072;11.970;2023-04-15T01:53:31;0.63;;;0.63;;
67063;SDS011;58476;48.072;11.970;2023-04-15T01:55:56;0.60;;;0.60;;
67063;SDS011;58476;48.072;11.970;2023-04-15T01:58:22;0.52;;;0.52;;
67063;SDS011;58476;48.072;11.970;2023-04-15T02:00:47;0.60;;;0.60;;
67063;SDS011;58476;48.072;11.970;2023-04-15T02:03:13;0.52;;;0.52;;
67063;SDS011;58476;48.072;11.970;2023-04-15T02:05:38;0.50;;;0.50;;
67063;SDS011;58476;48.072;11.970;2023-04-15T02:08:03;0.45;;;0.45;;
67063;SDS011;58476;48.072;11.970;2023-04-15T02:10:29;0.50;;;0.50;;
67063;SDS011;58476;48.072;11.970;2023-04-15T02:12:54;0.85;;;0.68;;
67063;SDS011;58476;48.072;11.970;2023-04-15T02:15:20;0.80;;;0.63;;
67063;SDS011;58476;48.072;11.970;2023-04-15T02:17:48;1.75;;;0.60;;
67063;SDS011;58476;48.072;11.970;2023-04-15T02:20:13;0.55;;;0.55;;
67063;SDS011;58476;48.072;11.970;2023-04-15T02:22:39;0.75;;;0.52;;
67063;SDS011;58476;48.072;11.970;2023-04-15T02:25:05;0.43;;;0.43;;
67063;SDS011;58476;48.072;11.970;2023-04-15T02:27:31;0.75;;;0.73;;
67063;SDS011;58476;48.072;11.970;2023-04-15T02:29:57;3.05;;;0.75;;
67063;SDS011;58476;48.072;11.970;2023-04-15T02:32:22;0.50;;;0.50;;
67063;SDS011;58476;48.072;11.970;2023-04-15T02:34:47;6.28;;;2.13;;
67063;SDS011;58476;48.072;11.970;2023-04-15T02:37:13;1.33;;;0.70;;
67063;SDS011;58476;48.072;11.970;2023-04-15T02:39:38;0.60;;;0.60;;
67063;SDS011;58476;48.072;11.970;2023-04-15T02:42:04;0.50;;;0.50;;
67063;SDS011;58476;48.072;11.970;2023-04-15T02:44:29;0.57;;;0.57;;
67063;SDS011;58476;48.072;11.970;2023-04-15T02:46:57;0.60;;;0.60;;
67063;SDS011;58476;48.072;11.970;2023-04-15T02:49:23;0.55;;;0.55;;
67063;SDS011;58476;48.072;11.970;2023-04-15T02:51:49;2.50;;;0.60;;
67063;SDS011;58476;48.072;11.970;2023-04-15T02:54:15;0.93;;;0.60;;
67063;SDS011;58476;48.072;11.970;2023-04-15T02:56:41;1.50;;;0.52;;
67063;SDS011;58476;48.072;11.970;2023-04-15T02:59:07;0.80;;;0.50;;
67063;SDS011;58476;48.072;11.970;2023-04-15T03:01:32;0.40;;;0.40;;
67063;SDS011;58476;48.072;11.970;2023-04-15T03:03:57;0.60;;;0.60;;
67063;SDS011;58476;48.072;11.970;2023-04-15T03:06:23;2.47;;;0.50;;
67063;SDS011;58476;48.072;11.970;2023-04-15T03:08:49;0.63;;;0.60;;
67063;SDS011;58476;48.072;11.970;2023-04-15T03:11:14;0.50;;;0.50;;
67063;SDS011;58476;48.072;11.970;2023-04-15T03:13:40;0.60;;;0.60;;
67063;SDS011;58476;48.072;11.970;2023-04-15T03:16:11;0.57;;;0.57;;
67063;SDS011;58476;48.072;11.970;2023-04-15T03:18:37;0.63;;;0.50;;
67063;SDS011;58476;48.072;11.970;2023-04-15T03:21:03;0.65;;;0.65;;
67063;SDS011;58476;48.072;11.970;2023-04-15T03:23:31;0.43;;;0.43;;
67063;SDS011;58476;48.072;11.970;2023-04-15T03:25:57;0.60;;;0.60;;
67063;SDS011;58476;48.072;11.970;2023-04-15T03:28:27;0.65;;;0.60;;
67063;SDS011;58476;48.072;11.970;2023-04-15T03:30:53;1.20;;;0.68;;
67063;SDS011;58476;48.072;11.970;2023-04-15T03:33:19;0.60;;;0.60;;
67063;SDS011;58476;48.072;11.970;2023-04-15T03:35:44;0.50;;;0.50;;
67063;SDS011;58476;48.072;11.970;2023-04-15T03:38:10;0.65;;;0.65;;
67063;SDS011;58476;48.072;11.970;2023-04-15T03:40:35;0.50;;;0.50;;
67063;SDS011;58476;48.072;11.970;2023-04-15T03:43:00;0.70;;;0.70;;
67063;SDS011;58476;48.072;11.970;2023-04-15T03:45:26;0.50;;;0.50;;
67063;SDS011;58476;48.072;11.970;2023-04-15T03:47:51;0.85;;;0.65;;
67063;SDS011;58476;48.072;11.970;2023-04-15T03:50:17;1.30;;;0.60;;
67063;SDS011;58476;48.072;11.970;2023-04-15T03:52:43;0.60;;;0.60;;
67063;SDS011;58476;48.072;11.970;2023-04-15T03:55:08;1.13;;;0.60;;
67063;SDS011;58476;48.072;11.970;2023-04-15T03:57:34;0.60;;;0.60;;
67063;SDS011;58476;48.072;11.970;2023-04-15T03:59:59;0.47;;;0.47;;
67063;SDS011;58476;48.072;11.970;2023-04-15T04:02:24;0.70;;;0.70;;
67063;SDS011;58476;48.072;11.970;2023-04-15T04:04:50;0.63;;;0.63;;
67063;SDS011;58476;48.072;11.970;2023-04-15T04:07:15;0.60;;;0.60;;
67063;SDS011;58476;48.072;11.970;2023-04-15T04:09:41;0.50;;;0.50;;
67063;SDS011;58476;48.072;11.970;2023-04-15T04:12:06;1.38;;;0.50;;
67063;SDS011;58476;48.072;11.970;2023-04-15T04:14:32;1.20;;;0.60;;
67063;SDS011;58476;48.072;11.970;2023-04-15T04:16:57;0.40;;;0.40;;
67063;SDS011;58476;48.072;11.970;2023-04-15T04:19:22;0.63;;;0.63;;
67063;SDS011;58476;48.072;11.970;2023-04-15T04:21:48;0.60;;;0.60;;
67063;SDS011;58476;48.072;11.970;2023-04-15T04:24:13;1.10;;;0.60;;
67063;SDS011;58476;48.072;11.970;2023-04-15T04:26:38;0.50;;;0.50;;
67063;SDS011;58476;48.072;11.970;2023-04-15T04:29:04;0.70;;;0.70;;
67063;SDS011;58476;48.072;11.970;2023-04-15T04:31:29;0.98;;;0.77;;
67063;SDS011;58476;48.072;11.970;2023-04-15T04:33:54;0.60;;;0.40;;
67063;SDS011;58476;48.072;11.970;2023-04-15T04:36:20;0.50;;;0.50;;
67063;SDS011;58476;48.072;11.970;2023-04-15T04:38:45;1.10;;;0.50;;
67063;SDS011;58476;48.072;11.970;2023-04-15T04:41:10;0.70;;;0.70;;
67063;SDS011;58476;48.072;11.970;2023-04-15T04:43:36;0.50;;;0.50;;
67063;SDS011;58476;48.072;11.970;2023-04-15T04:46:01;1.42;;;0.73;;
67063;SDS011;58476;48.072;11.970;2023-04-15T04:48:26;3.15;;;0.70;;
67063;SDS011;58476;48.072;11.970;2023-04-15T04:50:52;1.20;;;0.60;;
67063;SDS011;58476;48.072;11.970;2023-04-15T04:53:17;0.60;;;0.60;;
67063;SDS011;58476;48.072;11.970;2023-04-15T04:55:42;0.68;;;0.60;;
67063;SDS011;58476;48.072;11.970;2023-04-15T04:58:08;5.43;;;0.88;;
67063;SDS011;58476;48.072;11.970;2023-04-15T05:00:33;2.78;;;0.55;;
67063;SDS011;58476;48.072;11.970;2023-04-15T05:02:58;3.90;;;0.80;;
67063;SDS011;58476;48.072;11.970;2023-04-15T05:05:24;4.05;;;1.08;;
67063;SDS011;58476;48.072;11.970;2023-04-15T05:07:49;4.53;;;1.50;;
67063;SDS011;58476;48.072;11.970;2023-04-15T05:10:15;3.03;;;0.90;;
67063;SDS011;58476;48.072;11.970;2023-04-15T05:12:40;3.47;;;0.90;;
67063;SDS011;58476;48.072;11.970;2023-04-15T05:15:05;4.70;;;0.93;;
67063;SDS011;58476;48.072;11.970;2023-04-15T05:17:31;4.47;;;1.40;;
67063;SDS011;58476;48.072;11.970;2023-04-15T05:19:57;4.35;;;1.25;;
67063;SDS011;58476;48.072;11.970;2023-04-15T05:22:22;7.50;;;1.45;;
67063;SDS011;58476;48.072;11.970;2023-04-15T05:24:47;13.90;;;1.77;;
67063;SDS011;58476;48.072;11.970;2023-04-15T05:27:13;4.40;;;0.98;;
67063;SDS011;58476;48.072;11.970;2023-04-15T05:29:38;6.32;;;1.00;;
67063;SDS011;58476;48.072;11.970;2023-04-15T05:32:03;8.75;;;1.42;;
67063;SDS011;58476;48.072;11.970;2023-04-15T05:34:29;6.45;;;1.00;;
67063;SDS011;58476;48.072;11.970;2023-04-15T05:36:54;3.10;;;1.20;;
67063;SDS011;58476;48.072;11.970;2023-04-15T05:39:19;6.15;;;1.20;;
67063;SDS011;58476;48.072;11.970;2023-04-15T05:41:45;7.28;;;1.20;;
67063;SDS011;58476;48.072;11.970;2023-04-15T05:44:10;9.32;;;1.30;;
67063;SDS011;58476;48.072;11.970;2023-04-15T05:46:35;5.68;;;0.90;;
67063;SDS011;58476;48.072;11.970;2023-04-15T05:49:01;7.28;;;1.20;;
67063;SDS011;58476;48.072;11.970;2023-04-15T05:51:26;5.22;;;1.17;;
67063;SDS011;58476;48.072;11.970;2023-04-15T05:53:51;8.00;;;1.00;;
67063;SDS011;58476;48.072;11.970;2023-04-15T05:56:17;9.90;;;1.10;;
67063;SDS011;58476;48.072;11.970;2023-04-15T05:58:42;7.07;;;1.02;;
67063;SDS011;58476;48.072;11.970;2023-04-15T06:01:07;4.97;;;1.20;;
67063;SDS011;58476;48.072;11.970;2023-04-15T06:03:33;7.78;;;1.33;;
67063;SDS011;58476;48.072;11.970;2023-04-15T06:05:58;7.35;;;0.98;;
67063;SDS011;58476;48.072;11.970;2023-04-15T06:08:23;7.10;;;1.38;;
67063;SDS011;58476;48.072;11.970;2023-04-15T06:10:49;5.25;;;1.30;;
67063;SDS011;58476;48.072;11.970;2023-04-15T06:13:14;6.85;;;1.10;;
67063;SDS011;58476;48.072;11.970;2023-04-15T06:15:40;4.57;;;1.02;;
67063;SDS011;58476;48.072;11.970;2023-04-15T06:18:05;11.02;;;2.58;;
67063;SDS011;58476;48.072;11.970;2023-04-15T06:20:30;6.88;;;0.95;;
67063;SDS011;58476;48.072;11.970;2023-04-15T06:22:56;8.93;;;1.10;;
67063;SDS011;58476;48.072;11.970;2023-04-15T06:25:21;6.03;;;1.02;;
67063;SDS011;58476;48.072;11.970;2023-04-15T06:27:47;14.95;;;1.10;;
67063;SDS011;58476;48.072;11.970;2023-04-15T06:30:12;4.10;;;1.35;;
67063;SDS011;58476;48.072;11.970;2023-04-15T06:32:37;5.45;;;1.08;;
67063;SDS011;58476;48.072;11.970;2023-04-15T06:35:03;8.45;;;1.67;;
67063;SDS011;58476;48.072;11.970;2023-04-15T06:37:28;4.35;;;0.93;;
67063;SDS011;58476;48.072;11.970;2023-04-15T06:39:53;5.78;;;1.63;;
67063;SDS011;58476;48.072;11.970;2023-04-15T06:42:19;4.68;;;0.98;;
67063;SDS011;58476;48.072;11.970;2023-04-15T06:44:44;3.80;;;1.05;;
67063;SDS011;58476;48.072;11.970;2023-04-15T06:47:09;10.45;;;0.95;;
67063;SDS011;58476;48.072;11.970;2023-04-15T06:49:35;5.25;;;1.00;;
67063;SDS011;58476;48.072;11.970;2023-04-15T06:52:00;9.82;;;1.20;;
67063;SDS011;58476;48.072;11.970;2023-04-15T06:54:26;4.88;;;1.00;;
67063;SDS011;58476;48.072;11.970;2023-04-15T06:56:51;8.15;;;1.15;;
67063;SDS011;58476;48.072;11.970;2023-04-15T06:59:17;7.60;;;1.25;;
67063;SDS011;58476;48.072;11.970;2023-04-15T07:01:42;9.88;;;1.77;;
67063;SDS011;58476;48.072;11.970;2023-04-15T07:04:08;10.85;;;1.67;;
67063;SDS011;58476;48.072;11.970;2023-04-15T07:06:33;7.88;;;1.27;;
67063;SDS011;58476;48.072;11.970;2023-04-15T07:08:58;7.82;;;2.05;;
67063;SDS011;58476;48.072;11.970;2023-04-15T07:11:27;3.25;;;1.58;;
67063;SDS011;58476;48.072;11.970;2023-04-15T07:13:52;15.88;;;3.60;;
67063;SDS011;58476;48.072;11.970;2023-04-15T07:16:18;5.78;;;1.48;;
67063;SDS011;58476;48.072;11.970;2023-04-15T07:18:43;5.05;;;1.02;;
67063;SDS011;58476;48.072;11.970;2023-04-15T07:21:08;4.60;;;0.90;;
67063;SDS011;58476;48.072;11.970;2023-04-15T07:23:34;4.30;;;0.90;;
67063;SDS011;58476;48.072;11.970;2023-04-15T07:25:59;4.55;;;1.10;;
67063;SDS011;58476;48.072;11.970;2023-04-15T07:28:25;2.90;;;1.00;;
67063;SDS011;58476;48.072;11.970;2023-04-15T07:30:50;7.18;;;1.40;;
67063;SDS011;58476;48.072;11.970;2023-04-15T07:33:15;3.47;;;0.80;;
67063;SDS011;58476;48.072;11.970;2023-04-15T07:35:41;12.40;;;1.50;;
67063;SDS011;58476;48.072;11.970;2023-04-15T07:38:06;6.07;;;1.13;;
67063;SDS011;58476;48.072;11.970;2023-04-15T07:40:31;7.00;;;1.05;;
67063;SDS011;58476;48.072;11.970;2023-04-15T07:42:57;7.03;;;1.20;;
67063;SDS011;58476;48.072;11.970;2023-04-15T07:45:22;7.80;;;1.17;;
67063;SDS011;58476;48.072;11.970;2023-04-15T07:47:48;7.30;;;1.00;;
67063;SDS011;58476;48.072;11.970;2023-04-15T07:50:13;6.68;;;1.13;;
67063;SDS011;58476;48.072;11.970;2023-04-15T07:52:38;7.65;;;1.30;;
67063;SDS011;58476;48.072;11.970;2023-04-15T07:55:07;9.23;;;1.23;;
67063;SDS011;58476;48.072;11.970;2023-04-15T07:57:33;6.82;;;1.08;;
67063;SDS011;58476;48.072;11.970;2023-04-15T07:59:59;2.15;;;1.00;;
67063;SDS011;58476;48.072;11.970;2023-04-15T08:02:25;2.10;;;0.88;;
67063;SDS011;58476;48.072;11.970;2023-04-15T08:04:50;6.68;;;1.17;;
67063;SDS011;58476;48.072;11.970;2023-04-15T08:07:15;3.97;;;1.13;;
67063;SDS011;58476;48.072;11.970;2023-04-15T08:09:41;5.70;;;1.10;;
67063;SDS011;58476;48.072;11.970;2023-04-15T08:12:06;9.48;;;1.27;;
67063;SDS011;58476;48.072;11.970;2023-04-15T08:14:31;5.20;;;1.00;;
67063;SDS011;58476;48.072;11.970;2023-04-15T08:16:56;6.55;;;1.30;;
67063;SDS011;58476;48.072;11.970;2023-04-15T08:19:22;4.75;;;1.25;;
67063;SDS011;58476;48.072;11.970;2023-04-15T08:21:47;5.75;;;1.02;;
67063;SDS011;58476;48.072;11.970;2023-04-15T08:24:12;4.18;;;0.90;;
67063;SDS011;58476;48.072;11.970;2023-04-15T08:26:38;4.45;;;1.75;;
67063;SDS011;58476;48.072;11.970;2023-04-15T08:29:03;13.00;;;1.58;;
67063;SDS011;58476;48.072;11.970;2023-04-15T08:31:28;3.42;;;1.08;;
67063;SDS011;58476;48.072;11.970;2023-04-15T08:33:55;4.72;;;1.05;;
67063;SDS011;58476;48.072;11.970;2023-04-15T08:36:21;3.75;;;0.90;;
67063;SDS011;58476;48.072;11.970;2023-04-15T08:38:46;3.70;;;0.90;;
67063;SDS011;58476;48.072;11.970;2023-04-15T08:41:55;9.23;;;1.08;;
67063;SDS011;58476;48.072;11.970;2023-04-15T08:44:03;1.65;;;0.80;;
67063;SDS011;58476;48.072;11.970;2023-04-15T08:46:30;7.45;;;0.82;;
67063;SDS011;58476;48.072;11.970;2023-04-15T08:48:56;4.03;;;1.05;;
67063;SDS011;58476;48.072;11.970;2023-04-15T08:51:22;8.85;;;1.08;;
67063;SDS011;58476;48.072;11.970;2023-04-15T08:53:48;5.55;;;1.00;;
67063;SDS011;58476;48.072;11.970;2023-04-15T08:56:14;2.65;;;0.82;;
67063;SDS011;58476;48.072;11.970;2023-04-15T08:58:40;8.73;;;1.38;;
67063;SDS011;58476;48.072;11.970;2023-04-15T09:01:05;3.10;;;1.20;;
67063;SDS011;58476;48.072;11.970;2023-04-15T09:03:31;1.90;;;0.80;;
67063;SDS011;58476;48.072;11.970;2023-04-15T09:05:57;4.03;;;0.95;;
67063;SDS011;58476;48.072;11.970;2023-04-15T09:08:23;3.67;;;1.00;;
67063;SDS011;58476;48.072;11.970;2023-04-15T09:10:49;3.33;;;0.90;;
67063;SDS011;58476;48.072;11.970;2023-04-15T09:13:14;6.40;;;1.30;;
67063;SDS011;58476;48.072;11.970;2023-04-15T09:15:39;3.30;;;1.77;;
67063;SDS011;58476;48.072;11.970;2023-04-15T09:18:05;3.63;;;0.82;;
67063;SDS011;58476;48.072;11.970;2023-04-15T09:20:30;7.35;;;1.00;;
67063;SDS011;58476;48.072;11.970;2023-04-15T09:23:10;1.55;;;1.10;;
67063;SDS011;58476;48.072;11.970;2023-04-15T09:25:36;1.48;;;1.00;;
67063;SDS011;58476;48.072;11.970;2023-04-15T09:28:03;2.70;;;0.90;;
67063;SDS011;58476;48.072;11.970;2023-04-15T09:30:29;4.32;;;0.82;;
67063;SDS011;58476;48.072;11.970;2023-04-15T09:32:55;2.13;;;0.80;;
67063;SDS011;58476;48.072;11.970;2023-04-15T09:35:23;3.55;;;0.75;;
67063;SDS011;58476;48.072;11.970;2023-04-15T09:37:49;3.90;;;0.90;;
67063;SDS011;58476;48.072;11.970;2023-04-15T09:40:29;3.40;;;0.95;;
67063;SDS011;58476;48.072;11.970;2023-04-15T09:43:02;2.65;;;1.08;;
67063;SDS011;58476;48.072;11.970;2023-04-15T09:45:28;3.65;;;0.85;;
67063;SDS011;58476;48.072;11.970;2023-04-15T09:47:54;3.22;;;0.90;;
67063;SDS011;58476;48.072;11.970;2023-04-15T09:50:21;1.50;;;0.80;;
67063;SDS011;58476;48.072;11.970;2023-04-15T09:52:46;2.17;;;0.88;;
67063;SDS011;58476;48.072;11.970;2023-04-15T09:55:12;3.53;;;0.88;;
67063;SDS011;58476;48.072;11.970;2023-04-15T09:57:39;1.52;;;0.90;;
67063;SDS011;58476;48.072;11.970;2023-04-15T10:00:05;3.25;;;0.80;;
67063;SDS011;58476;48.072;11.970;2023-04-15T10:02:32;2.25;;;0.70;;
67063;SDS011;58476;48.072;11.970;2023-04-15T10:04:57;1.48;;;0.77;;
67063;SDS011;58476;48.072;11.970;2023-04-15T10:07:24;3.42;;;0.90;;
67063;SDS011;58476;48.072;11.970;2023-04-15T10:09:50;1.88;;;0.88;;
67063;SDS011;58476;48.072;11.970;2023-04-15T10:12:16;1.23;;;0.60;;
67063;SDS011;58476;48.072;11.970;2023-04-15T10:14:41;0.70;;;0.70;;
67063;SDS011;58476;48.072;11.970;2023-04-15T10:17:08;4.70;;;1.20;;
67063;SDS011;58476;48.072;11.970;2023-04-15T10:19:35;1.52;;;0.75;;
67063;SDS011;58476;48.072;11.970;2023-04-15T10:22:01;2.58;;;0.70;;
67063;SDS011;58476;48.072;11.970;2023-04-15T10:24:27;1.88;;;0.77;;
67063;SDS011;58476;48.072;11.970;2023-04-15T10:26:54;2.90;;;0.90;;
67063;SDS011;58476;48.072;11.970;2023-04-15T10:29:20;1.90;;;0.73;;
67063;SDS011;58476;48.072;11.970;2023-04-15T10:31:48;3.65;;;0.90;;
67063;SDS011;58476;48.072;11.970;2023-04-15T10:34:14;3.38;;;0.95;;
67063;SDS011;58476;48.072;11.970;2023-04-15T10:36:40;6.25;;;1.25;;
67063;SDS011;58476;48.072;11.970;2023-04-15T10:39:48;1.35;;;0.77;;
67063;SDS011;58476;48.072;11.970;2023-04-15T10:44:35;1.23;;;0.85;;
67063;SDS011;58476;48.072;11.970;2023-04-15T10:47:03;3.58;;;0.77;;
67063;SDS011;58476;48.072;11.970;2023-04-15T10:49:43;8.30;;;1.25;;
67063;SDS011;58476;48.072;11.970;2023-04-15T10:52:16;3.03;;;1.25;;
67063;SDS011;58476;48.072;11.970;2023-04-15T10:54:46;3.53;;;0.60;;
67063;SDS011;58476;48.072;11.970;2023-04-15T10:57:15;1.27;;;0.70;;
67063;SDS011;58476;48.072;11.970;2023-04-15T10:59:59;1.25;;;0.77;;
67063;SDS011;58476;48.072;11.970;2023-04-15T11:05:22;3.40;;;1.08;;
67063;SDS011;58476;48.072;11.970;2023-04-15T11:08:13;3.95;;;1.00;;
67063;SDS011;58476;48.072;11.970;2023-04-15T11:13:05;4.57;;;0.98;;
67063;SDS011;58476;48.072;11.970;2023-04-15T11:15:40;1.63;;;0.90;;
67063;SDS011;58476;48.072;11.970;2023-04-15T11:18:08;3.63;;;0.88;;
67063;SDS011;58476;48.072;11.970;2023-04-15T11:20:39;1.77;;;0.80;;
67063;SDS011;58476;48.072;11.970;2023-04-15T11:23:07;1.02;;;0.80;;
67063;SDS011;58476;48.072;11.970;2023-04-15T11:25:33;2.47;;;0.75;;
67063;SDS011;58476;48.072;11.970;2023-04-15T11:28:00;2.35;;;0.90;;
67063;SDS011;58476;48.072;11.970;2023-04-15T11:30:26;3.35;;;0.93;;
67063;SDS011;58476;48.072;11.970;2023-04-15T11:32:54;1.27;;;0.90;;
67063;SDS011;58476;48.072;11.970;2023-04-15T11:35:22;1.45;;;0.70;;
67063;SDS011;58476;48.072;11.970;2023-04-15T11:37:48;3.38;;;0.80;;
67063;SDS011;58476;48.072;11.970;2023-04-15T11:40:13;2.55;;;0.90;;
67063;SDS011;58476;48.072;11.970;2023-04-15T11:42:39;2.90;;;1.00;;
67063;SDS011;58476;48.072;11.970;2023-04-15T11:47:37;0.98;;;0.93;;
67063;SDS011;58476;48.072;11.970;2023-04-15T11:50:13;1.20;;;0.73;;
67063;SDS011;58476;48.072;11.970;2023-04-15T11:55:20;4.20;;;0.80;;
67063;SDS011;58476;48.072;11.970;2023-04-15T11:57:46;4.22;;;1.38;;
67063;SDS011;58476;48.072;11.970;2023-04-15T12:00:12;1.48;;;0.68;;
67063;SDS011;58476;48.072;11.970;2023-04-15T12:02:37;2.20;;;0.90;;
67063;SDS011;58476;48.072;11.970;2023-04-15T12:05:06;1.00;;;0.70;;
67063;SDS011;58476;48.072;11.970;2023-04-15T12:07:32;1.38;;;1.00;;
67063;SDS011;58476;48.072;11.970;2023-04-15T12:09:57;1.10;;;0.80;;
67063;SDS011;58476;48.072;11.970;2023-04-15T12:12:26;1.70;;;0.73;;
67063;SDS011;58476;48.072;11.970;2023-04-15T12:14:52;2.50;;;0.93;;
67063;SDS011;58476;48.072;11.970;2023-04-15T12:17:17;1.13;;;0.80;;
67063;SDS011;58476;48.072;11.970;2023-04-15T12:19:42;3.30;;;0.80;;
67063;SDS011;58476;48.072;11.970;2023-04-15T12:22:08;2.38;;;1.10;;
67063;SDS011;58476;48.072;11.970;2023-04-15T12:24:36;3.92;;;1.05;;
67063;SDS011;58476;48.072;11.970;2023-04-15T12:27:10;0.70;;;0.70;;
67063;SDS011;58476;48.072;11.970;2023-04-15T12:29:37;0.85;;;0.70;;
67063;SDS011;58476;48.072;11.970;2023-04-15T12:34:37;3.05;;;0.80;;
67063;SDS011;58476;48.072;11.970;2023-04-15T12:37:07;1.40;;;0.90;;
67063;SDS011;58476;48.072;11.970;2023-04-15T12:39:35;1.17;;;0.88;;
67063;SDS011;58476;48.072;11.970;2023-04-15T12:42:02;0.63;;;0.63;;
67063;SDS011;58476;48.072;11.970;2023-04-15T12:44:28;2.70;;;0.95;;
67063;SDS011;58476;48.072;11.970;2023-04-15T12:46:54;0.70;;;0.70;;
67063;SDS011;58476;48.072;11.970;2023-04-15T12:49:20;1.65;;;0.85;;
67063;SDS011;58476;48.072;11.970;2023-04-15T12:51:47;1.92;;;0.88;;
67063;SDS011;58476;48.072;11.970;2023-04-15T12:54:14;1.27;;;0.70;;
67063;SDS011;58476;48.072;11.970;2023-04-15T12:56:40;1.55;;;1.02;;
67063;SDS011;58476;48.072;11.970;2023-04-15T12:59:06;1.52;;;0.80;;
67063;SDS011;58476;48.072;11.970;2023-04-15T13:01:31;0.80;;;0.80;;
67063;SDS011;58476;48.072;11.970;2023-04-15T13:03:57;2.63;;;0.85;;
67063;SDS011;58476;48.072;11.970;2023-04-15T13:06:22;1.92;;;1.10;;
67063;SDS011;58476;48.072;11.970;2023-04-15T13:08:47;1.05;;;0.75;;
67063;SDS011;58476;48.072;11.970;2023-04-15T13:11:13;1.17;;;0.80;;
67063;SDS011;58476;48.072;11.970;2023-04-15T13:13:38;2.80;;;0.80;;
67063;SDS011;58476;48.072;11.970;2023-04-15T13:16:03;2.65;;;1.02;;
67063;SDS011;58476;48.072;11.970;2023-04-15T13:18:29;1.60;;;0.90;;
67063;SDS011;58476;48.072;11.970;2023-04-15T13:20:54;1.25;;;0.88;;
67063;SDS011;58476;48.072;11.970;2023-04-15T13:23:20;0.70;;;0.70;;
67063;SDS011;58476;48.072;11.970;2023-04-15T13:25:45;1.50;;;0.90;;
67063;SDS011;58476;48.072;11.970;2023-04-15T13:28:10;1.75;;;1.25;;
67063;SDS011;58476;48.072;11.970;2023-04-15T13:30:36;1.10;;;0.95;;
67063;SDS011;58476;48.072;11.970;2023-04-15T13:33:02;1.92;;;0.68;;
67063;SDS011;58476;48.072;11.970;2023-04-15T13:35:28;2.92;;;0.77;;
67063;SDS011;58476;48.072;11.970;2023-04-15T13:37:53;2.05;;;0.95;;
67063;SDS011;58476;48.072;11.970;2023-04-15T13:40:18;1.23;;;0.80;;
67063;SDS011;58476;48.072;11.970;2023-04-15T13:42:44;3.28;;;1.15;;
67063;SDS011;58476;48.072;11.970;2023-04-15T13:45:09;0.73;;;0.73;;
67063;SDS011;58476;48.072;11.970;2023-04-15T13:47:35;2.58;;;0.98;;
67063;SDS011;58476;48.072;11.970;2023-04-15T13:50:00;2.05;;;0.85;;
67063;SDS011;58476;48.072;11.970;2023-04-15T13:52:25;5.00;;;1.00;;
67063;SDS011;58476;48.072;11.970;2023-04-15T13:54:51;1.45;;;1.33;;
67063;SDS011;58476;48.072;11.970;2023-04-15T13:57:16;1.67;;;0.90;;
67063;SDS011;58476;48.072;11.970;2023-04-15T13:59:41;1.60;;;0.70;;
67063;SDS011;58476;48.072;11.970;2023-04-15T14:02:07;2.65;;;0.90;;
67063;SDS011;58476;48.072;11.970;2023-04-15T14:04:32;0.98;;;0.80;;
67063;SDS011;58476;48.072;11.970;2023-04-15T14:06:57;0.80;;;0.80;;
67063;SDS011;58476;48.072;11.970;2023-04-15T14:09:23;1.02;;;0.93;;
67063;SDS011;58476;48.072;11.970;2023-04-15T14:11:48;0.70;;;0.70;;
67063;SDS011;58476;48.072;11.970;2023-04-15T14:14:14;1.88;;;0.70;;
67063;SDS011;58476;48.072;11.970;2023-04-15T14:16:40;5.32;;;1.70;;
67063;SDS011;58476;48.072;11.970;2023-04-15T14:19:05;9.23;;;2.25;;
67063;SDS011;58476;48.072;11.970;2023-04-15T14:21:30;3.08;;;1.65;;
67063;SDS011;58476;48.072;11.970;2023-04-15T14:23:56;5.15;;;2.25;;
67063;SDS011;58476;48.072;11.970;2023-04-15T14:26:21;5.25;;;2.08;;
67063;SDS011;58476;48.072;11.970;2023-04-15T14:28:46;4.35;;;2.00;;
67063;SDS011;58476;48.072;11.970;2023-04-15T14:31:12;5.63;;;2.00;;
67063;SDS011;58476;48.072;11.970;2023-04-15T14:33:37;4.40;;;2.20;;
67063;SDS011;58476;48.072;11.970;2023-04-15T14:36:02;3.25;;;1.83;;
67063;SDS011;58476;48.072;11.970;2023-04-15T14:38:28;5.65;;;2.28;;
67063;SDS011;58476;48.072;11.970;2023-04-15T14:40:53;5.60;;;2.28;;
67063;SDS011;58476;48.072;11.970;2023-04-15T14:43:19;4.93;;;1.92;;